Jubilant Success — 3EVY2 — position and weather

sailwx.info

Track history (hours):
 
Tides and Currents Weather Stations Pressure Air Temp Water Temp Dewpoint Dewpoint Depression Visibility Wind Speed Wind Dir Waves Ship Positions

Jubilant Success

Last reported at 2017-Oct-20 23:44 UTC. Time now 2017-Nov-21 13:30 UTC.
Position N 36°08' E 014°51'.
Warning: this ship's position is 31 days out of date.

Length 240 m; draft 14.9 m.

Type: Cargo ship. MMSI: 373784000.

Date/timePositionNaut miles runAvg speedWind from/ knotsBaromVisibWave heightAir tempDewpointWater temp
2017-Oct-20 23:44N 36°08' E 014°51'311.7
2017-Oct-20 23:30N 36°09' E 014°47'611.6
2017-Oct-20 23:00N 36°10' E 014°40'611.8
2017-Oct-20 22:31N 36°12' E 014°34'611.7
2017-Oct-20 22:00N 36°14' E 014°26'611.7
2017-Oct-20 21:30N 36°16' E 014°20'611.6
2017-Oct-20 21:00N 36°17' E 014°13'611.3
2017-Oct-20 20:30N 36°20' E 014°06'611.3
2017-Oct-20 20:00N 36°22' E 013°60'611.1
2017-Oct-20 19:30N 36°24' E 013°53'611.1
2017-Oct-20 18:59N 36°26' E 013°47'510.9
2017-Oct-20 18:29N 36°28' E 013°41'510.9
2017-Oct-20 18:00N 36°31' E 013°35'510.8
2017-Oct-20 17:30N 36°33' E 013°29'510.7
2017-Oct-20 17:00N 36°35' E 013°22'510.7
2017-Oct-20 16:30N 36°37' E 013°16'510.8
2017-Oct-20 16:00N 36°39' E 013°10'510.6
2017-Oct-20 15:30N 36°41' E 013°04'510.7
2017-Oct-20 15:00N 36°43' E 012°58'510.6
2017-Oct-20 14:30N 36°45' E 012°52'1110.7
2017-Oct-20 13:30N 36°49' E 012°40'510.8
2017-Oct-20 13:00N 36°52' E 012°33'510.7
2017-Oct-20 12:30N 36°54' E 012°27'510.7
2017-Oct-20 12:00N 36°56' E 012°22'16411.9
2017-Oct-19 22:12N 37°39' E 009°03'511.4
2017-Oct-19 21:47N 37°40' E 008°57'311.6
2017-Oct-19 21:29N 37°39' E 008°52'811.9
2017-Oct-19 20:48N 37°38' E 008°42'1111.9
2017-Oct-19 19:52N 37°38' E 008°28'511.5
2017-Oct-19 19:28N 37°37' E 008°22'811.4
2017-Oct-19 18:46N 37°37' E 008°12'2011.3
2017-Oct-19 17:00N 37°35' E 007°47'40511.9
2017-Oct-18 06:56N 36°31' W 000°34'612.0
2017-Oct-18 06:28N 36°30' W 000°41'21312.3
2017-Oct-17 13:04N 36°01' W 005°03'213.4
2017-Oct-17 12:54N 36°01' W 005°06'513.0
2017-Oct-17 12:30N 35°60' W 005°12'612.3
2017-Oct-17 12:00N 35°59' W 005°20'612.5
2017-Oct-17 11:30N 35°58' W 005°27'20710.7
2017-Oct-16 16:10N 36°34' W 009°40'311.1
2017-Oct-16 15:56N 36°36' W 009°42'13610.6
2017-Oct-16 03:08N 38°46' W 010°30'312.9
2017-Oct-16 02:52N 38°50' W 010°30'612.6
2017-Oct-16 02:25N 38°55' W 010°30'512.4
2017-Oct-16 02:00N 39°00' W 010°30'612.2
2017-Oct-16 01:30N 39°07' W 010°30'911.6
2017-Oct-16 00:43N 39°16' W 010°30'4111.5
2017-Oct-15 21:08N 39°57' W 010°30'210.9
2017-Oct-15 20:59N 39°59' W 010°30'1510.8
2017-Oct-15 19:34N 40°14' W 010°30'110.6
2017-Oct-15 19:30N 40°15' W 010°30'610.4
2017-Oct-15 18:56N 40°20' W 010°30'410.1
2017-Oct-15 18:31N 40°25' W 010°30'7 9.8
2017-Oct-15 17:47N 40°32' W 010°30'3 9.7
2017-Oct-15 17:31N 40°34' W 010°30'12 9.9
2017-Oct-15 16:21N 40°46' W 010°30'23910.7
2017-Oct-14 17:54N 44°41' W 009°26'611.6
2017-Oct-14 17:25N 44°46' W 009°22'811.8
2017-Oct-14 16:46N 44°52' W 009°17'27910.7
2017-Oct-13 14:48N 48°55' W 005°56'411.0
2017-Oct-13 14:27N 48°58' W 005°53'511.0
2017-Oct-13 13:59N 49°03' W 005°49'510.5
2017-Oct-13 13:29N 49°07' W 005°44'510.7
2017-Oct-13 13:00N 49°10' W 005°37'610.4
2017-Oct-13 12:28N 49°13' W 005°30'510.3
2017-Oct-13 12:00N 49°14' W 005°22'510.4
2017-Oct-13 11:29N 49°16' W 005°15'510.3
2017-Oct-13 10:59N 49°18' W 005°08'510.1
2017-Oct-13 10:30N 49°20' W 005°01'5 9.9
2017-Oct-13 10:00N 49°22' W 004°54'510.1
2017-Oct-13 09:30N 49°24' W 004°47'510.1
2017-Oct-13 09:00N 49°27' W 004°40'510.2
2017-Oct-13 08:30N 49°29' W 004°33'510.4
2017-Oct-13 08:00N 49°31' W 004°26'510.7
2017-Oct-13 07:30N 49°34' W 004°19'611.1
2017-Oct-13 07:00N 49°36' W 004°11'611.2
2017-Oct-13 06:30N 49°38' W 004°03'611.4
2017-Oct-13 06:00N 49°41' W 003°55'611.5
2017-Oct-13 05:30N 49°44' W 003°48'611.5
2017-Oct-13 05:00N 49°47' W 003°40'611.4
2017-Oct-13 04:30N 49°49' W 003°32'611.1
2017-Oct-13 04:01N 49°51' W 003°24'510.9
2017-Oct-13 03:30N 49°54' W 003°17'510.7
2017-Oct-13 03:00N 49°56' W 003°09'510.4
2017-Oct-13 02:30N 49°58' W 003°02'510.2
2017-Oct-13 02:00N 49°59' W 002°54'5 9.9
2017-Oct-13 01:30N 50°01' W 002°46'5510.6
2017-Oct-12 20:20N 50°15' W 001°24'1513.5
2017-Oct-12 19:15N 50°19' W 001°02'913.6
2017-Oct-12 18:34N 50°21' W 000°48'513.2
2017-Oct-12 18:14N 50°23' W 000°41'812.9
2017-Oct-12 17:38N 50°25' W 000°30'212.6
2017-Oct-12 17:30N 50°25' W 000°27'612.3
2017-Oct-12 17:00N 50°26' W 000°18'611.8
2017-Oct-12 16:30N 50°28' W 000°09'611.3
2017-Oct-12 16:00N 50°29' W 000°00'511.0
2017-Oct-12 15:30N 50°31' E 000°08'510.5
2017-Oct-12 15:00N 50°32' E 000°16'510.2
2017-Oct-12 14:30N 50°34' E 000°24'5 9.9
2017-Oct-12 14:00N 50°35' E 000°31'5 9.7
2017-Oct-12 13:30N 50°37' E 000°38'510.0
2017-Oct-12 13:00N 50°40' E 000°45'510.5
2017-Oct-12 12:30N 50°43' E 000°51'611.0
2017-Oct-12 12:00N 50°47' E 000°58'611.8
2017-Oct-12 11:29N 50°51' E 001°05'612.3
2017-Oct-12 11:00N 50°55' E 001°12'612.7
2017-Oct-12 10:30N 50°60' E 001°19'612.7
2017-Oct-12 10:00N 51°03' E 001°27'612.4
2017-Oct-12 09:30N 51°07' E 001°34'611.6
2017-Oct-12 09:00N 51°11' E 001°42'611.0
2017-Oct-12 08:30N 51°15' E 001°47'510.5
2017-Oct-12 08:00N 51°20' E 001°51'510.2
2017-Oct-12 07:30N 51°24' E 001°55'5 9.6
2017-Oct-12 07:00N 51°28' E 001°59'5 9.5
2017-Oct-12 06:30N 51°32' E 002°04'5 9.3
2017-Oct-12 06:00N 51°35' E 002°10'5 9.4
2017-Oct-12 05:30N 51°38' E 002°15'  
Track history (hours):
 
Tides and Currents Weather Stations Pressure Air Temp Water Temp Dewpoint Dewpoint Depression Visibility Wind Speed Wind Dir Waves Ship Positions

Jubilant Success

Last reported at 2017-Oct-20 23:44 UTC. Time now 2017-Nov-21 13:30 UTC.
Position N 36°08' E 014°51'.
Warning: this ship's position is 31 days out of date.

Length 240 m; draft 14.9 m.

Type: Cargo ship. MMSI: 373784000.

Date/timePositionNaut miles runAvg speedWind from/ knotsBaromVisibWave heightAir tempDewpointWater temp
2017-Oct-20 23:44N 36°08' E 014°51'311.7
2017-Oct-20 23:30N 36°09' E 014°47'611.6
2017-Oct-20 23:00N 36°10' E 014°40'611.8
2017-Oct-20 22:31N 36°12' E 014°34'611.7
2017-Oct-20 22:00N 36°14' E 014°26'611.7
2017-Oct-20 21:30N 36°16' E 014°20'611.6
2017-Oct-20 21:00N 36°17' E 014°13'611.3
2017-Oct-20 20:30N 36°20' E 014°06'611.3
2017-Oct-20 20:00N 36°22' E 013°60'611.1
2017-Oct-20 19:30N 36°24' E 013°53'611.1
2017-Oct-20 18:59N 36°26' E 013°47'510.9
2017-Oct-20 18:29N 36°28' E 013°41'510.9
2017-Oct-20 18:00N 36°31' E 013°35'510.8
2017-Oct-20 17:30N 36°33' E 013°29'510.7
2017-Oct-20 17:00N 36°35' E 013°22'510.7
2017-Oct-20 16:30N 36°37' E 013°16'510.8
2017-Oct-20 16:00N 36°39' E 013°10'510.6
2017-Oct-20 15:30N 36°41' E 013°04'510.7
2017-Oct-20 15:00N 36°43' E 012°58'510.6
2017-Oct-20 14:30N 36°45' E 012°52'1110.7
2017-Oct-20 13:30N 36°49' E 012°40'510.8
2017-Oct-20 13:00N 36°52' E 012°33'510.7
2017-Oct-20 12:30N 36°54' E 012°27'510.7
2017-Oct-20 12:00N 36°56' E 012°22'16411.9
2017-Oct-19 22:12N 37°39' E 009°03'511.4
2017-Oct-19 21:47N 37°40' E 008°57'311.6
2017-Oct-19 21:29N 37°39' E 008°52'811.9
2017-Oct-19 20:48N 37°38' E 008°42'1111.9
2017-Oct-19 19:52N 37°38' E 008°28'511.5
2017-Oct-19 19:28N 37°37' E 008°22'811.4
2017-Oct-19 18:46N 37°37' E 008°12'2011.3
2017-Oct-19 17:00N 37°35' E 007°47'40511.9
2017-Oct-18 06:56N 36°31' W 000°34'612.0
2017-Oct-18 06:28N 36°30' W 000°41'21312.3
2017-Oct-17 13:04N 36°01' W 005°03'213.4
2017-Oct-17 12:54N 36°01' W 005°06'513.0
2017-Oct-17 12:30N 35°60' W 005°12'612.3
2017-Oct-17 12:00N 35°59' W 005°20'612.5
2017-Oct-17 11:30N 35°58' W 005°27'20710.7
2017-Oct-16 16:10N 36°34' W 009°40'311.1
2017-Oct-16 15:56N 36°36' W 009°42'13610.6
2017-Oct-16 03:08N 38°46' W 010°30'312.9
2017-Oct-16 02:52N 38°50' W 010°30'612.6
2017-Oct-16 02:25N 38°55' W 010°30'512.4
2017-Oct-16 02:00N 39°00' W 010°30'612.2
2017-Oct-16 01:30N 39°07' W 010°30'911.6
2017-Oct-16 00:43N 39°16' W 010°30'4111.5
2017-Oct-15 21:08N 39°57' W 010°30'210.9
2017-Oct-15 20:59N 39°59' W 010°30'1510.8
2017-Oct-15 19:34N 40°14' W 010°30'110.6
2017-Oct-15 19:30N 40°15' W 010°30'610.4
2017-Oct-15 18:56N 40°20' W 010°30'410.1
2017-Oct-15 18:31N 40°25' W 010°30'7 9.8
2017-Oct-15 17:47N 40°32' W 010°30'3 9.7
2017-Oct-15 17:31N 40°34' W 010°30'12 9.9
2017-Oct-15 16:21N 40°46' W 010°30'23910.7
2017-Oct-14 17:54N 44°41' W 009°26'611.6
2017-Oct-14 17:25N 44°46' W 009°22'811.8
2017-Oct-14 16:46N 44°52' W 009°17'27910.7
2017-Oct-13 14:48N 48°55' W 005°56'411.0
2017-Oct-13 14:27N 48°58' W 005°53'511.0
2017-Oct-13 13:59N 49°03' W 005°49'510.5
2017-Oct-13 13:29N 49°07' W 005°44'510.7
2017-Oct-13 13:00N 49°10' W 005°37'610.4
2017-Oct-13 12:28N 49°13' W 005°30'510.3
2017-Oct-13 12:00N 49°14' W 005°22'510.4
2017-Oct-13 11:29N 49°16' W 005°15'510.3
2017-Oct-13 10:59N 49°18' W 005°08'510.1
2017-Oct-13 10:30N 49°20' W 005°01'5 9.9
2017-Oct-13 10:00N 49°22' W 004°54'510.1
2017-Oct-13 09:30N 49°24' W 004°47'510.1
2017-Oct-13 09:00N 49°27' W 004°40'510.2
2017-Oct-13 08:30N 49°29' W 004°33'510.4
2017-Oct-13 08:00N 49°31' W 004°26'510.7
2017-Oct-13 07:30N 49°34' W 004°19'611.1
2017-Oct-13 07:00N 49°36' W 004°11'611.2
2017-Oct-13 06:30N 49°38' W 004°03'611.4
2017-Oct-13 06:00N 49°41' W 003°55'611.5
2017-Oct-13 05:30N 49°44' W 003°48'611.5
2017-Oct-13 05:00N 49°47' W 003°40'611.4
2017-Oct-13 04:30N 49°49' W 003°32'611.1
2017-Oct-13 04:01N 49°51' W 003°24'510.9
2017-Oct-13 03:30N 49°54' W 003°17'510.7
2017-Oct-13 03:00N 49°56' W 003°09'510.4
2017-Oct-13 02:30N 49°58' W 003°02'510.2
2017-Oct-13 02:00N 49°59' W 002°54'5 9.9
2017-Oct-13 01:30N 50°01' W 002°46'5510.6
2017-Oct-12 20:20N 50°15' W 001°24'1513.5
2017-Oct-12 19:15N 50°19' W 001°02'913.6
2017-Oct-12 18:34N 50°21' W 000°48'513.2
2017-Oct-12 18:14N 50°23' W 000°41'812.9
2017-Oct-12 17:38N 50°25' W 000°30'212.6
2017-Oct-12 17:30N 50°25' W 000°27'612.3
2017-Oct-12 17:00N 50°26' W 000°18'611.8
2017-Oct-12 16:30N 50°28' W 000°09'611.3
2017-Oct-12 16:00N 50°29' W 000°00'511.0
2017-Oct-12 15:30N 50°31' E 000°08'510.5
2017-Oct-12 15:00N 50°32' E 000°16'510.2
2017-Oct-12 14:30N 50°34' E 000°24'5 9.9
2017-Oct-12 14:00N 50°35' E 000°31'5 9.7
2017-Oct-12 13:30N 50°37' E 000°38'510.0
2017-Oct-12 13:00N 50°40' E 000°45'510.5
2017-Oct-12 12:30N 50°43' E 000°51'611.0
2017-Oct-12 12:00N 50°47' E 000°58'611.8
2017-Oct-12 11:29N 50°51' E 001°05'612.3
2017-Oct-12 11:00N 50°55' E 001°12'612.7
2017-Oct-12 10:30N 50°60' E 001°19'612.7
2017-Oct-12 10:00N 51°03' E 001°27'612.4
2017-Oct-12 09:30N 51°07' E 001°34'611.6
2017-Oct-12 09:00N 51°11' E 001°42'611.0
2017-Oct-12 08:30N 51°15' E 001°47'510.5
2017-Oct-12 08:00N 51°20' E 001°51'510.2
2017-Oct-12 07:30N 51°24' E 001°55'5 9.6
2017-Oct-12 07:00N 51°28' E 001°59'5 9.5
2017-Oct-12 06:30N 51°32' E 002°04'5 9.3
2017-Oct-12 06:00N 51°35' E 002°10'5 9.4
2017-Oct-12 05:30N 51°38' E 002°15'  

Dump ship's entire track history